sensor_id;sensor_type;location;lat;lon;timestamp;pressure;altitude;pressure_sealevel;temperature;humidity
79612;BME280;69094;48.154;11.536;2023-06-22T00:02:22;95592.88;;;20.57;65.06
79612;BME280;69094;48.154;11.536;2023-06-22T00:04:47;95588.50;;;20.52;65.60
79612;BME280;69094;48.154;11.536;2023-06-22T00:07:13;95592.03;;;20.46;65.60
79612;BME280;69094;48.154;11.536;2023-06-22T00:09:38;95590.03;;;20.46;65.71
79612;BME280;69094;48.154;11.536;2023-06-22T00:12:04;95580.94;;;20.42;65.67
79612;BME280;69094;48.154;11.536;2023-06-22T00:14:30;95587.66;;;20.37;65.91
79612;BME280;69094;48.154;11.536;2023-06-22T00:16:55;95591.56;;;20.33;66.38
79612;BME280;69094;48.154;11.536;2023-06-22T00:19:22;95595.50;;;20.28;66.59
79612;BME280;69094;48.154;11.536;2023-06-22T00:21:48;95598.22;;;20.25;66.55
79612;BME280;69094;48.154;11.536;2023-06-22T00:24:18;95593.84;;;20.16;67.02
79612;BME280;69094;48.154;11.536;2023-06-22T00:26:44;95585.94;;;20.11;67.02
79612;BME280;69094;48.154;11.536;2023-06-22T00:29:10;95586.34;;;20.17;66.92
79612;BME280;69094;48.154;11.536;2023-06-22T00:31:35;95584.31;;;20.03;67.18
79612;BME280;69094;48.154;11.536;2023-06-22T00:34:00;95588.19;;;19.91;67.89
79612;BME280;69094;48.154;11.536;2023-06-22T00:36:26;95596.47;;;19.95;67.70
79612;BME280;69094;48.154;11.536;2023-06-22T00:38:51;95581.88;;;19.91;67.49
79612;BME280;69094;48.154;11.536;2023-06-22T00:41:17;95594.88;;;19.90;67.66
79612;BME280;69094;48.154;11.536;2023-06-22T00:43:43;95591.72;;;19.92;67.48
79612;BME280;69094;48.154;11.536;2023-06-22T00:46:08;95591.28;;;19.86;67.69
79612;BME280;69094;48.154;11.536;2023-06-22T00:48:34;95588.06;;;19.77;68.19
79612;BME280;69094;48.154;11.536;2023-06-22T00:51:02;95587.69;;;19.78;67.99
79612;BME280;69094;48.154;11.536;2023-06-22T00:53:27;95586.09;;;19.77;67.73
79612;BME280;69094;48.154;11.536;2023-06-22T00:55:53;95576.25;;;19.76;67.93
79612;BME280;69094;48.154;11.536;2023-06-22T00:58:19;95588.53;;;19.83;67.50
79612;BME280;69094;48.154;11.536;2023-06-22T01:00:47;95584.50;;;19.73;67.72
79612;BME280;69094;48.154;11.536;2023-06-22T01:03:13;95581.75;;;19.73;68.02
79612;BME280;69094;48.154;11.536;2023-06-22T01:05:39;95573.47;;;19.73;67.82
79612;BME280;69094;48.154;11.536;2023-06-22T01:08:29;95567.53;;;19.71;67.90
79612;BME280;69094;48.154;11.536;2023-06-22T01:11:01;95566.66;;;19.63;68.28
79612;BME280;69094;48.154;11.536;2023-06-22T01:16:03;95553.28;;;19.65;68.16
79612;BME280;69094;48.154;11.536;2023-06-22T01:18:32;95552.81;;;19.59;68.11
79612;BME280;69094;48.154;11.536;2023-06-22T01:21:02;95553.22;;;19.58;68.21
79612;BME280;69094;48.154;11.536;2023-06-22T01:23:39;95549.22;;;19.52;68.52
79612;BME280;69094;48.154;11.536;2023-06-22T01:26:40;95544.53;;;19.56;68.07
79612;BME280;69094;48.154;11.536;2023-06-22T01:29:08;95542.13;;;19.54;68.24
79612;BME280;69094;48.154;11.536;2023-06-22T01:31:38;95545.69;;;19.51;68.35
79612;BME280;69094;48.154;11.536;2023-06-22T01:34:06;95547.25;;;19.52;68.43
79612;BME280;69094;48.154;11.536;2023-06-22T01:36:33;95541.34;;;19.54;68.25
79612;BME280;69094;48.154;11.536;2023-06-22T01:39:00;95535.41;;;19.52;68.27
79612;BME280;69094;48.154;11.536;2023-06-22T01:41:28;95529.88;;;19.48;68.54
79612;BME280;69094;48.154;11.536;2023-06-22T01:43:55;95535.78;;;19.47;68.48
79612;BME280;69094;48.154;11.536;2023-06-22T01:46:21;95540.09;;;19.41;69.00
79612;BME280;69094;48.154;11.536;2023-06-22T01:48:47;95532.56;;;19.37;68.82
79612;BME280;69094;48.154;11.536;2023-06-22T01:51:13;95539.25;;;19.33;68.86
79612;BME280;69094;48.154;11.536;2023-06-22T01:53:38;95532.16;;;19.35;68.91
79612;BME280;69094;48.154;11.536;2023-06-22T01:56:04;95539.28;;;19.40;68.73
79612;BME280;69094;48.154;11.536;2023-06-22T01:58:30;95540.81;;;19.37;68.95
79612;BME280;69094;48.154;11.536;2023-06-22T02:01:00;95530.63;;;19.42;68.82
79612;BME280;69094;48.154;11.536;2023-06-22T02:03:37;95537.28;;;19.37;68.86
79612;BME280;69094;48.154;11.536;2023-06-22T02:06:13;95551.56;;;19.46;68.75
79612;BME280;69094;48.154;11.536;2023-06-22T02:08:41;95546.41;;;19.45;68.85
79612;BME280;69094;48.154;11.536;2023-06-22T02:11:11;95540.09;;;19.44;68.96
79612;BME280;69094;48.154;11.536;2023-06-22T02:13:38;95546.69;;;19.29;69.78
79612;BME280;69094;48.154;11.536;2023-06-22T02:16:09;95553.75;;;19.26;70.09
79612;BME280;69094;48.154;11.536;2023-06-22T02:18:35;95555.69;;;19.22;70.17
79612;BME280;69094;48.154;11.536;2023-06-22T02:21:01;95554.53;;;19.23;70.18
79612;BME280;69094;48.154;11.536;2023-06-22T02:23:27;95556.09;;;19.24;70.24
79612;BME280;69094;48.154;11.536;2023-06-22T02:25:53;95546.59;;;19.18;70.39
79612;BME280;69094;48.154;11.536;2023-06-22T02:28:18;95549.66;;;19.09;70.25
79612;BME280;69094;48.154;11.536;2023-06-22T02:30:44;95546.91;;;19.09;70.54
79612;BME280;69094;48.154;11.536;2023-06-22T02:33:09;95551.28;;;19.14;70.50
79612;BME280;69094;48.154;11.536;2023-06-22T02:35:34;95557.56;;;19.11;70.47
79612;BME280;69094;48.154;11.536;2023-06-22T02:38:02;95562.31;;;19.14;70.32
79612;BME280;69094;48.154;11.536;2023-06-22T02:40:29;95565.84;;;19.11;70.23
79612;BME280;69094;48.154;11.536;2023-06-22T02:42:55;95570.59;;;19.14;70.67
79612;BME280;69094;48.154;11.536;2023-06-22T02:45:20;95576.03;;;19.07;70.35
79612;BME280;69094;48.154;11.536;2023-06-22T02:47:46;95578.09;;;19.17;70.11
79612;BME280;69094;48.154;11.536;2023-06-22T02:50:13;95580.16;;;19.27;69.92
79612;BME280;69094;48.154;11.536;2023-06-22T02:52:38;95579.72;;;19.22;70.42
79612;BME280;69094;48.154;11.536;2023-06-22T02:55:05;95573.78;;;19.16;70.40
79612;BME280;69094;48.154;11.536;2023-06-22T02:57:30;95569.41;;;19.15;70.11
79612;BME280;69094;48.154;11.536;2023-06-22T02:59:55;95567.78;;;19.10;69.98
79612;BME280;69094;48.154;11.536;2023-06-22T03:02:21;95559.06;;;19.01;70.89
79612;BME280;69094;48.154;11.536;2023-06-22T03:04:47;95568.47;;;19.00;70.99
79612;BME280;69094;48.154;11.536;2023-06-22T03:07:15;95557.44;;;19.00;70.99
79612;BME280;69094;48.154;11.536;2023-06-22T03:09:40;95563.72;;;18.93;71.18
79612;BME280;69094;48.154;11.536;2023-06-22T03:12:07;95561.31;;;18.88;71.54
79612;BME280;69094;48.154;11.536;2023-06-22T03:14:32;95560.13;;;18.93;71.35
79612;BME280;69094;48.154;11.536;2023-06-22T03:16:58;95558.91;;;18.87;71.52
79612;BME280;69094;48.154;11.536;2023-06-22T03:19:28;95555.78;;;18.88;71.21
79612;BME280;69094;48.154;11.536;2023-06-22T03:21:55;95562.09;;;18.89;71.29
79612;BME280;69094;48.154;11.536;2023-06-22T03:24:20;95553.03;;;18.88;71.46
79612;BME280;69094;48.154;11.536;2023-06-22T03:26:46;95547.03;;;18.83;71.33
79612;BME280;69094;48.154;11.536;2023-06-22T03:29:12;95537.88;;;18.75;71.78
79612;BME280;69094;48.154;11.536;2023-06-22T03:31:37;95545.44;;;18.78;71.82
79612;BME280;69094;48.154;11.536;2023-06-22T03:34:03;95549.34;;;18.77;71.76
79612;BME280;69094;48.154;11.536;2023-06-22T03:36:28;95550.84;;;18.71;71.93
79612;BME280;69094;48.154;11.536;2023-06-22T03:38:54;95551.25;;;18.73;71.69
79612;BME280;69094;48.154;11.536;2023-06-22T03:41:19;95554.41;;;18.71;71.83
79612;BME280;69094;48.154;11.536;2023-06-22T03:43:45;95559.84;;;18.64;72.28
79612;BME280;69094;48.154;11.536;2023-06-22T03:46:10;95563.94;;;18.78;72.06
79612;BME280;69094;48.154;11.536;2023-06-22T03:48:36;95562.69;;;18.75;72.09
79612;BME280;69094;48.154;11.536;2023-06-22T03:51:02;95567.53;;;18.82;71.98
79612;BME280;69094;48.154;11.536;2023-06-22T03:53:28;95562.78;;;18.79;72.08
79612;BME280;69094;48.154;11.536;2023-06-22T03:55:54;95565.97;;;18.84;72.21
79612;BME280;69094;48.154;11.536;2023-06-22T03:58:20;95565.28;;;18.94;71.83
79612;BME280;69094;48.154;11.536;2023-06-22T04:00:46;95567.63;;;18.92;71.88
79612;BME280;69094;48.154;11.536;2023-06-22T04:03:12;95572.00;;;18.93;71.81
79612;BME280;69094;48.154;11.536;2023-06-22T04:05:40;95578.66;;;18.92;72.22
79612;BME280;69094;48.154;11.536;2023-06-22T04:08:06;95577.53;;;18.97;71.87
79612;BME280;69094;48.154;11.536;2023-06-22T04:10:31;95578.31;;;18.98;71.91
79612;BME280;69094;48.154;11.536;2023-06-22T04:12:57;95584.44;;;18.80;72.48
79612;BME280;69094;48.154;11.536;2023-06-22T04:15:22;95574.00;;;19.00;71.90
79612;BME280;69094;48.154;11.536;2023-06-22T04:17:48;95567.19;;;18.90;71.82
79612;BME280;69094;48.154;11.536;2023-06-22T04:20:13;95566.50;;;18.97;71.52
79612;BME280;69094;48.154;11.536;2023-06-22T04:22:38;95571.50;;;18.84;71.94
79612;BME280;69094;48.154;11.536;2023-06-22T04:25:06;95569.66;;;18.99;71.98
79612;BME280;69094;48.154;11.536;2023-06-22T04:27:32;95571.44;;;19.18;71.32
79612;BME280;69094;48.154;11.536;2023-06-22T04:30:03;95568.69;;;19.22;71.33
79612;BME280;69094;48.154;11.536;2023-06-22T04:32:28;95560.41;;;19.22;70.74
79612;BME280;69094;48.154;11.536;2023-06-22T04:34:54;95568.38;;;19.30;71.10
79612;BME280;69094;48.154;11.536;2023-06-22T04:37:19;95568.06;;;19.39;70.78
79612;BME280;69094;48.154;11.536;2023-06-22T04:39:49;95569.63;;;19.40;70.72
79612;BME280;69094;48.154;11.536;2023-06-22T04:42:14;95567.28;;;19.42;70.52
79612;BME280;69094;48.154;11.536;2023-06-22T04:44:40;95566.13;;;19.43;70.38
79612;BME280;69094;48.154;11.536;2023-06-22T04:47:07;95552.69;;;19.42;70.43
79612;BME280;69094;48.154;11.536;2023-06-22T04:49:34;95555.50;;;19.45;70.11
79612;BME280;69094;48.154;11.536;2023-06-22T04:52:10;95554.38;;;19.57;70.60
79612;BME280;69094;48.154;11.536;2023-06-22T04:54:37;95556.00;;;19.62;70.09
79612;BME280;69094;48.154;11.536;2023-06-22T04:57:05;95554.03;;;19.62;69.69
79612;BME280;69094;48.154;11.536;2023-06-22T04:59:35;95553.31;;;19.72;69.12
79612;BME280;69094;48.154;11.536;2023-06-22T05:02:02;95556.91;;;19.76;69.01
79612;BME280;69094;48.154;11.536;2023-06-22T05:04:30;95558.69;;;19.51;69.78
79612;BME280;69094;48.154;11.536;2023-06-22T05:07:01;95555.22;;;19.61;69.94
79612;BME280;69094;48.154;11.536;2023-06-22T05:09:27;95548.69;;;19.84;69.02
79612;BME280;69094;48.154;11.536;2023-06-22T05:11:53;95546.72;;;19.84;68.72
79612;BME280;69094;48.154;11.536;2023-06-22T05:14:18;95539.97;;;19.78;69.19
79612;BME280;69094;48.154;11.536;2023-06-22T05:16:44;95540.00;;;19.82;68.62
79612;BME280;69094;48.154;11.536;2023-06-22T05:19:11;95540.44;;;19.94;68.71
79612;BME280;69094;48.154;11.536;2023-06-22T05:21:37;95542.84;;;19.99;68.60
79612;BME280;69094;48.154;11.536;2023-06-22T05:24:03;95546.09;;;20.19;68.21
79612;BME280;69094;48.154;11.536;2023-06-22T05:26:29;95544.53;;;20.15;67.85
79612;BME280;69094;48.154;11.536;2023-06-22T05:28:55;95541.00;;;20.29;68.23
79612;BME280;69094;48.154;11.536;2023-06-22T05:31:21;95541.44;;;20.38;67.24
79612;BME280;69094;48.154;11.536;2023-06-22T05:33:48;95549.00;;;20.52;66.93
79612;BME280;69094;48.154;11.536;2023-06-22T05:36:14;95543.47;;;20.48;66.87
79612;BME280;69094;48.154;11.536;2023-06-22T05:38:40;95542.69;;;20.51;66.95
79612;BME280;69094;48.154;11.536;2023-06-22T05:41:06;95542.38;;;20.71;66.27
79612;BME280;69094;48.154;11.536;2023-06-22T05:43:32;95534.47;;;20.73;66.16
79612;BME280;69094;48.154;11.536;2023-06-22T05:45:57;95539.63;;;20.89;65.94
79612;BME280;69094;48.154;11.536;2023-06-22T05:48:23;95544.78;;;20.83;66.01
79612;BME280;69094;48.154;11.536;2023-06-22T05:50:49;95536.09;;;20.95;66.45
79612;BME280;69094;48.154;11.536;2023-06-22T05:53:14;95531.78;;;21.12;65.62
79612;BME280;69094;48.154;11.536;2023-06-22T05:55:40;95532.56;;;21.13;65.27
79612;BME280;69094;48.154;11.536;2023-06-22T05:58:05;95542.09;;;21.40;65.61
79612;BME280;69094;48.154;11.536;2023-06-22T06:00:31;95543.66;;;21.63;64.63
79612;BME280;69094;48.154;11.536;2023-06-22T06:02:56;95551.94;;;21.23;65.10
79612;BME280;69094;48.154;11.536;2023-06-22T06:05:22;95554.72;;;21.56;64.08
79612;BME280;69094;48.154;11.536;2023-06-22T06:07:49;95549.97;;;21.63;63.40
79612;BME280;69094;48.154;11.536;2023-06-22T06:10:14;95550.78;;;21.53;64.43
79612;BME280;69094;48.154;11.536;2023-06-22T06:12:40;95544.84;;;21.40;64.01
79612;BME280;69094;48.154;11.536;2023-06-22T06:15:05;95554.31;;;21.82;63.95
79612;BME280;69094;48.154;11.536;2023-06-22T06:17:31;95549.97;;;21.85;63.30
79612;BME280;69094;48.154;11.536;2023-06-22T06:19:56;95543.56;;;22.06;63.12
79612;BME280;69094;48.154;11.536;2023-06-22T06:22:23;95534.84;;;22.14;62.62
79612;BME280;69094;48.154;11.536;2023-06-22T06:24:49;95539.19;;;22.26;62.44
79612;BME280;69094;48.154;11.536;2023-06-22T06:27:15;95534.03;;;22.32;61.99
79612;BME280;69094;48.154;11.536;2023-06-22T06:29:40;95535.91;;;22.53;61.59
79612;BME280;69094;48.154;11.536;2023-06-22T06:32:06;95522.91;;;22.39;61.95
79612;BME280;69094;48.154;11.536;2023-06-22T06:34:31;95524.09;;;22.42;61.18
79612;BME280;69094;48.154;11.536;2023-06-22T06:36:57;95528.47;;;22.39;61.70
79612;BME280;69094;48.154;11.536;2023-06-22T06:39:22;95524.34;;;22.65;61.37
79612;BME280;69094;48.154;11.536;2023-06-22T06:41:48;95517.91;;;22.83;59.64
79612;BME280;69094;48.154;11.536;2023-06-22T06:44:13;95529.88;;;22.72;60.36
79612;BME280;69094;48.154;11.536;2023-06-22T06:46:39;95525.97;;;22.59;60.26
79612;BME280;69094;48.154;11.536;2023-06-22T06:49:04;95530.22;;;22.82;60.37
79612;BME280;69094;48.154;11.536;2023-06-22T06:51:30;95527.28;;;23.10;59.51
79612;BME280;69094;48.154;11.536;2023-06-22T06:53:55;95527.97;;;23.25;58.39
79612;BME280;69094;48.154;11.536;2023-06-22T06:56:20;95519.53;;;23.39;58.95
79612;BME280;69094;48.154;11.536;2023-06-22T06:58:46;95523.28;;;23.15;58.53
79612;BME280;69094;48.154;11.536;2023-06-22T07:01:12;95517.00;;;23.56;58.57
79612;BME280;69094;48.154;11.536;2023-06-22T07:03:38;95518.84;;;23.73;56.96
79612;BME280;69094;48.154;11.536;2023-06-22T07:06:03;95522.47;;;24.08;56.73
79612;BME280;69094;48.154;11.536;2023-06-22T07:08:29;95534.53;;;24.28;56.96
79612;BME280;69094;48.154;11.536;2023-06-22T07:10:55;95528.06;;;24.04;55.76
79612;BME280;69094;48.154;11.536;2023-06-22T07:13:20;95530.00;;;24.45;55.44
79612;BME280;69094;48.154;11.536;2023-06-22T07:15:45;95531.16;;;24.48;55.34
79612;BME280;69094;48.154;11.536;2023-06-22T07:18:11;95522.13;;;24.71;54.68
79612;BME280;69094;48.154;11.536;2023-06-22T07:20:36;95518.84;;;24.80;54.86
79612;BME280;69094;48.154;11.536;2023-06-22T07:23:02;95527.31;;;25.27;53.33
79612;BME280;69094;48.154;11.536;2023-06-22T07:25:27;95518.50;;;25.01;53.82
79612;BME280;69094;48.154;11.536;2023-06-22T07:30:27;95518.13;;;25.77;51.35
79612;BME280;69094;48.154;11.536;2023-06-22T07:32:52;95508.91;;;26.24;51.55
79612;BME280;69094;48.154;11.536;2023-06-22T07:35:17;95508.84;;;26.67;48.64
79612;BME280;69094;48.154;11.536;2023-06-22T07:37:43;95516.06;;;26.64;48.14
79612;BME280;69094;48.154;11.536;2023-06-22T07:40:09;95505.53;;;26.32;49.71
79612;BME280;69094;48.154;11.536;2023-06-22T07:42:35;95500.06;;;26.85;48.34
79612;BME280;69094;48.154;11.536;2023-06-22T07:45:01;95495.03;;;27.13;47.67
79612;BME280;69094;48.154;11.536;2023-06-22T07:47:27;95496.84;;;26.87;47.72
79612;BME280;69094;48.154;11.536;2023-06-22T07:49:54;95496.78;;;27.06;47.11
79612;BME280;69094;48.154;11.536;2023-06-22T07:52:21;95483.81;;;27.49;46.12
79612;BME280;69094;48.154;11.536;2023-06-22T07:54:46;95488.31;;;27.92;45.98
79612;BME280;69094;48.154;11.536;2023-06-22T07:57:12;95499.34;;;28.70;43.13
79612;BME280;69094;48.154;11.536;2023-06-22T07:59:37;95498.34;;;28.35;44.51
79612;BME280;69094;48.154;11.536;2023-06-22T08:02:04;95496.19;;;28.55;44.44
79612;BME280;69094;48.154;11.536;2023-06-22T08:04:30;95502.34;;;28.34;44.32
79612;BME280;69094;48.154;11.536;2023-06-22T08:06:57;95497.25;;;28.87;42.80
79612;BME280;69094;48.154;11.536;2023-06-22T08:09:22;95495.81;;;29.21;42.72
79612;BME280;69094;48.154;11.536;2023-06-22T08:11:47;95504.13;;;27.99;44.59
79612;BME280;69094;48.154;11.536;2023-06-22T08:14:14;95501.19;;;27.57;45.52
79612;BME280;69094;48.154;11.536;2023-06-22T08:16:41;95498.66;;;27.95;45.17
79612;BME280;69094;48.154;11.536;2023-06-22T08:19:06;95497.84;;;28.53;44.16
79612;BME280;69094;48.154;11.536;2023-06-22T08:21:32;95495.91;;;29.30;43.26
79612;BME280;69094;48.154;11.536;2023-06-22T08:23:57;95495.19;;;29.65;41.15
79612;BME280;69094;48.154;11.536;2023-06-22T08:26:22;95486.41;;;30.45;38.94
79612;BME280;69094;48.154;11.536;2023-06-22T08:28:48;95489.34;;;30.41;38.68
79612;BME280;69094;48.154;11.536;2023-06-22T08:31:14;95491.22;;;30.88;37.99
79612;BME280;69094;48.154;11.536;2023-06-22T08:33:39;95490.84;;;31.08;38.24
79612;BME280;69094;48.154;11.536;2023-06-22T08:36:05;95488.88;;;31.18;37.79
79612;BME280;69094;48.154;11.536;2023-06-22T08:38:31;95484.28;;;29.92;39.22
79612;BME280;69094;48.154;11.536;2023-06-22T08:40:57;95497.03;;;29.46;40.23
79612;BME280;69094;48.154;11.536;2023-06-22T08:43:22;95481.00;;;28.95;42.36
79612;BME280;69094;48.154;11.536;2023-06-22T08:45:47;95482.00;;;28.88;42.13
79612;BME280;69094;48.154;11.536;2023-06-22T08:48:13;95485.72;;;29.24;41.53
79612;BME280;69094;48.154;11.536;2023-06-22T08:50:38;95491.28;;;29.62;41.38
79612;BME280;69094;48.154;11.536;2023-06-22T08:53:05;95477.75;;;29.48;40.70
79612;BME280;69094;48.154;11.536;2023-06-22T08:55:31;95482.25;;;29.93;40.79
79612;BME280;69094;48.154;11.536;2023-06-22T08:57:57;95482.72;;;29.78;40.38
79612;BME280;69094;48.154;11.536;2023-06-22T09:00:22;95483.69;;;30.32;39.62
79612;BME280;69094;48.154;11.536;2023-06-22T09:02:47;95484.09;;;30.97;37.89
79612;BME280;69094;48.154;11.536;2023-06-22T09:05:13;95476.50;;;31.56;36.40
79612;BME280;69094;48.154;11.536;2023-06-22T09:07:39;95480.06;;;31.47;37.59
79612;BME280;69094;48.154;11.536;2023-06-22T09:10:05;95474.84;;;31.37;37.03
79612;BME280;69094;48.154;11.536;2023-06-22T09:12:31;95480.59;;;31.73;35.48
79612;BME280;69094;48.154;11.536;2023-06-22T09:14:58;95485.84;;;31.44;36.74
79612;BME280;69094;48.154;11.536;2023-06-22T09:17:25;95474.22;;;31.32;36.63
79612;BME280;69094;48.154;11.536;2023-06-22T09:19:50;95476.81;;;31.67;35.30
79612;BME280;69094;48.154;11.536;2023-06-22T09:22:16;95480.13;;;30.63;37.11
79612;BME280;69094;48.154;11.536;2023-06-22T09:24:41;95478.94;;;31.36;36.99
79612;BME280;69094;48.154;11.536;2023-06-22T09:27:07;95479.69;;;32.04;35.49
79612;BME280;69094;48.154;11.536;2023-06-22T09:29:32;95469.50;;;32.62;34.30
79612;BME280;69094;48.154;11.536;2023-06-22T09:31:59;95473.50;;;32.89;32.98
79612;BME280;69094;48.154;11.536;2023-06-22T09:34:25;95473.94;;;33.06;32.72
79612;BME280;69094;48.154;11.536;2023-06-22T09:36:50;95476.50;;;32.85;33.00
79612;BME280;69094;48.154;11.536;2023-06-22T09:39:17;95471.66;;;32.86;33.23
79612;BME280;69094;48.154;11.536;2023-06-22T09:41:42;95467.38;;;32.11;34.04
79612;BME280;69094;48.154;11.536;2023-06-22T09:44:08;95475.19;;;32.25;34.14
79612;BME280;69094;48.154;11.536;2023-06-22T09:46:33;95474.06;;;32.41;33.05
79612;BME280;69094;48.154;11.536;2023-06-22T09:48:59;95471.31;;;32.93;32.52
79612;BME280;69094;48.154;11.536;2023-06-22T09:51:24;95460.66;;;32.17;32.98
79612;BME280;69094;48.154;11.536;2023-06-22T09:53:50;95457.78;;;32.45;32.85
79612;BME280;69094;48.154;11.536;2023-06-22T09:56:16;95455.75;;;33.16;32.40
79612;BME280;69094;48.154;11.536;2023-06-22T09:58:42;95458.41;;;33.19;32.26
79612;BME280;69094;48.154;11.536;2023-06-22T10:01:08;95454.41;;;33.35;32.19
79612;BME280;69094;48.154;11.536;2023-06-22T10:03:33;95442.47;;;32.98;33.35
79612;BME280;69094;48.154;11.536;2023-06-22T10:05:59;95438.19;;;33.93;31.92
79612;BME280;69094;48.154;11.536;2023-06-22T10:08:24;95444.63;;;34.33;30.37
79612;BME280;69094;48.154;11.536;2023-06-22T10:10:50;95446.13;;;34.72;29.52
79612;BME280;69094;48.154;11.536;2023-06-22T10:13:15;95437.16;;;34.44;30.74
79612;BME280;69094;48.154;11.536;2023-06-22T10:15:42;95438.25;;;34.62;29.96
79612;BME280;69094;48.154;11.536;2023-06-22T10:18:07;95434.53;;;34.02;30.91
79612;BME280;69094;48.154;11.536;2023-06-22T10:20:33;95440.75;;;35.04;29.07
79612;BME280;69094;48.154;11.536;2023-06-22T10:22:59;95426.94;;;35.42;27.81
79612;BME280;69094;48.154;11.536;2023-06-22T10:25:24;95444.47;;;34.81;29.73
79612;BME280;69094;48.154;11.536;2023-06-22T10:27:50;95444.72;;;35.27;29.51
79612;BME280;69094;48.154;11.536;2023-06-22T10:30:16;95435.28;;;35.66;28.93
79612;BME280;69094;48.154;11.536;2023-06-22T10:32:42;95441.31;;;35.58;28.73
79612;BME280;69094;48.154;11.536;2023-06-22T10:35:09;95428.03;;;36.06;28.54
79612;BME280;69094;48.154;11.536;2023-06-22T10:37:41;95431.94;;;35.88;28.32
79612;BME280;69094;48.154;11.536;2023-06-22T10:40:08;95430.03;;;36.46;27.84
79612;BME280;69094;48.154;11.536;2023-06-22T10:42:34;95427.53;;;36.28;28.15
79612;BME280;69094;48.154;11.536;2023-06-22T10:44:59;95416.72;;;36.06;28.89
79612;BME280;69094;48.154;11.536;2023-06-22T10:47:25;95405.09;;;36.04;28.84
79612;BME280;69094;48.154;11.536;2023-06-22T10:49:50;95408.91;;;36.21;27.70
79612;BME280;69094;48.154;11.536;2023-06-22T10:52:15;95415.13;;;37.09;27.42
79612;BME280;69094;48.154;11.536;2023-06-22T10:54:42;95411.25;;;36.49;27.66
79612;BME280;69094;48.154;11.536;2023-06-22T10:57:09;95408.16;;;37.04;27.43
79612;BME280;69094;48.154;11.536;2023-06-22T10:59:34;95398.13;;;37.09;27.53
79612;BME280;69094;48.154;11.536;2023-06-22T11:02:00;95394.69;;;36.41;27.86
79612;BME280;69094;48.154;11.536;2023-06-22T11:04:25;95393.88;;;34.98;29.32
79612;BME280;69094;48.154;11.536;2023-06-22T11:06:51;95396.31;;;34.16;31.66
79612;BME280;69094;48.154;11.536;2023-06-22T11:09:17;95399.59;;;33.51;32.44
79612;BME280;69094;48.154;11.536;2023-06-22T11:11:46;95395.00;;;33.15;33.28
79612;BME280;69094;48.154;11.536;2023-06-22T11:14:12;95395.28;;;33.17;33.84
79612;BME280;69094;48.154;11.536;2023-06-22T11:16:37;95392.28;;;33.68;33.34
79612;BME280;69094;48.154;11.536;2023-06-22T11:19:04;95390.44;;;33.65;33.39
79612;BME280;69094;48.154;11.536;2023-06-22T11:21:30;95394.00;;;34.88;31.36
79612;BME280;69094;48.154;11.536;2023-06-22T11:23:56;95390.88;;;34.86;31.58
79612;BME280;69094;48.154;11.536;2023-06-22T11:26:22;95386.41;;;34.65;30.95
79612;BME280;69094;48.154;11.536;2023-06-22T11:28:47;95392.19;;;35.21;30.55
79612;BME280;69094;48.154;11.536;2023-06-22T11:31:12;95391.69;;;35.78;30.65
79612;BME280;69094;48.154;11.536;2023-06-22T11:33:38;95392.16;;;36.70;27.52
79612;BME280;69094;48.154;11.536;2023-06-22T11:36:03;95385.00;;;36.54;28.12
79612;BME280;69094;48.154;11.536;2023-06-22T11:38:29;95377.28;;;36.80;28.57
79612;BME280;69094;48.154;11.536;2023-06-22T11:40:57;95379.41;;;36.91;28.40
79612;BME280;69094;48.154;11.536;2023-06-22T11:43:23;95372.84;;;37.05;27.65
79612;BME280;69094;48.154;11.536;2023-06-22T11:45:48;95370.91;;;37.28;28.33
79612;BME280;69094;48.154;11.536;2023-06-22T11:48:13;95366.66;;;37.50;26.87
79612;BME280;69094;48.154;11.536;2023-06-22T11:50:39;95366.72;;;36.81;28.24
79612;BME280;69094;48.154;11.536;2023-06-22T11:53:04;95354.81;;;36.77;27.32
79612;BME280;69094;48.154;11.536;2023-06-22T11:55:30;95365.44;;;36.04;28.75
79612;BME280;69094;48.154;11.536;2023-06-22T11:57:56;95360.03;;;36.84;27.60
79612;BME280;69094;48.154;11.536;2023-06-22T12:00:24;95356.63;;;37.55;27.83
79612;BME280;69094;48.154;11.536;2023-06-22T12:02:51;95358.03;;;37.82;26.55
79612;BME280;69094;48.154;11.536;2023-06-22T12:05:20;95348.09;;;37.06;26.65
79612;BME280;69094;48.154;11.536;2023-06-22T12:07:46;95350.53;;;36.29;28.63
79612;BME280;69094;48.154;11.536;2023-06-22T12:10:11;95347.34;;;35.54;29.81
79612;BME280;69094;48.154;11.536;2023-06-22T12:12:37;95348.88;;;36.17;28.23
79612;BME280;69094;48.154;11.536;2023-06-22T12:15:02;95342.47;;;36.80;28.24
79612;BME280;69094;48.154;11.536;2023-06-22T12:17:32;95336.78;;;37.60;26.57
79612;BME280;69094;48.154;11.536;2023-06-22T12:19:58;95327.38;;;37.37;26.63
79612;BME280;69094;48.154;11.536;2023-06-22T12:22:23;95325.06;;;37.41;26.20
79612;BME280;69094;48.154;11.536;2023-06-22T12:24:49;95323.75;;;36.94;26.57
79612;BME280;69094;48.154;11.536;2023-06-22T12:27:15;95322.25;;;37.47;26.52
79612;BME280;69094;48.154;11.536;2023-06-22T12:29:41;95318.78;;;36.83;27.94
79612;BME280;69094;48.154;11.536;2023-06-22T12:32:07;95314.97;;;35.76;28.97
79612;BME280;69094;48.154;11.536;2023-06-22T12:34:32;95307.06;;;35.59;30.09
79612;BME280;69094;48.154;11.536;2023-06-22T12:36:58;95313.00;;;35.62;29.52
79612;BME280;69094;48.154;11.536;2023-06-22T12:39:23;95305.94;;;35.98;28.71
79612;BME280;69094;48.154;11.536;2023-06-22T12:41:49;95307.97;;;35.97;28.52
79612;BME280;69094;48.154;11.536;2023-06-22T12:44:14;95319.72;;;35.44;30.38
79612;BME280;69094;48.154;11.536;2023-06-22T12:46:39;95308.88;;;35.63;29.48
79612;BME280;69094;48.154;11.536;2023-06-22T12:49:05;95303.38;;;35.12;30.98
79612;BME280;69094;48.154;11.536;2023-06-22T12:51:30;95296.25;;;35.02;31.20